EDW57P LEPA-LSZH
Flight info
| Callsign | EDW57P |
|---|---|
| Flight time | 1h 26m |
| Altitude | 34000 |
| Route | MEROS DCT LAPIT DCT CHELY DCT LUMAS DCT MAXIR DCT LUSOL DCT BODRU DCT OKTET DCT IRMAR DCT KINES DCT VANAS DCT MOBLO DCT LAMUR DCT KORED N871 BERSU |
| Aircraft | A320/M-SDE3FGHIRWY/LB1 |
Departure
| Time | 2026-05-04 17:56 |
|---|---|
| Airport | Palma de Mallorca Airport (LEPA) |
Arrival
| Time | 2026-05-04 19:22 |
|---|---|
| Airport | Zürich Airport (LSZH) |
| Time | Latitude | Longitude | Altitude | Speed | Heading |
|---|---|---|---|---|---|
| 2026-05-04 17:34 | 39.54514 | 2.73282 | 35 ft | 0 kts | 347° |
| 2026-05-04 17:42 | 39.54512 | 2.73282 | 37 ft | 2 kts | 347° |
| 2026-05-04 17:43 | 39.54496 | 2.73288 | 36 ft | 2 kts | 345° |
| 2026-05-04 17:43 | 39.54480 | 2.73291 | 37 ft | 2 kts | 46° |
| 2026-05-04 17:43 | 39.54470 | 2.73274 | 35 ft | 2 kts | 60° |
| 2026-05-04 17:43 | 39.54469 | 2.73270 | 36 ft | 0 kts | 57° |
| 2026-05-04 17:47 | 39.54480 | 2.73295 | 33 ft | 10 kts | 59° |
| 2026-05-04 17:48 | 39.54515 | 2.73370 | 37 ft | 9 kts | 59° |
| 2026-05-04 17:48 | 39.54547 | 2.73439 | 36 ft | 8 kts | 58° |
| 2026-05-04 17:48 | 39.54577 | 2.73503 | 36 ft | 11 kts | 58° |
| 2026-05-04 17:48 | 39.54629 | 2.73608 | 34 ft | 14 kts | 59° |
| 2026-05-04 17:49 | 39.54677 | 2.73710 | 35 ft | 13 kts | 59° |
| 2026-05-04 17:49 | 39.54720 | 2.73802 | 34 ft | 11 kts | 59° |
| 2026-05-04 17:49 | 39.54759 | 2.73886 | 34 ft | 11 kts | 59° |
| 2026-05-04 17:49 | 39.54798 | 2.73963 | 33 ft | 10 kts | 56° |
| 2026-05-04 17:50 | 39.54870 | 2.73982 | 33 ft | 17 kts | 329° |
| 2026-05-04 17:50 | 39.54946 | 2.74000 | 33 ft | 11 kts | 49° |
| 2026-05-04 17:50 | 39.55001 | 2.73989 | 33 ft | 8 kts | 327° |
| 2026-05-04 17:50 | 39.55060 | 2.73942 | 33 ft | 18 kts | 330° |
| 2026-05-04 17:51 | 39.55192 | 2.73835 | 33 ft | 23 kts | 326° |
| 2026-05-04 17:51 | 39.55324 | 2.73734 | 34 ft | 18 kts | 328° |
| 2026-05-04 17:51 | 39.55419 | 2.73659 | 34 ft | 15 kts | 329° |
| 2026-05-04 17:51 | 39.55499 | 2.73595 | 34 ft | 13 kts | 326° |
| 2026-05-04 17:52 | 39.55568 | 2.73541 | 34 ft | 11 kts | 330° |
| 2026-05-04 17:52 | 39.55629 | 2.73500 | 34 ft | 10 kts | 351° |
| 2026-05-04 17:52 | 39.55704 | 2.73609 | 35 ft | 21 kts | 57° |
| 2026-05-04 17:52 | 39.55778 | 2.73762 | 35 ft | 19 kts | 59° |
| 2026-05-04 17:53 | 39.55843 | 2.73897 | 36 ft | 16 kts | 58° |
| 2026-05-04 17:53 | 39.55898 | 2.74016 | 36 ft | 14 kts | 59° |
| 2026-05-04 17:53 | 39.55946 | 2.74118 | 35 ft | 13 kts | 57° |
| 2026-05-04 17:53 | 39.56034 | 2.74251 | 39 ft | 22 kts | 34° |
| 2026-05-04 17:54 | 39.56154 | 2.74356 | 40 ft | 19 kts | 33° |
| 2026-05-04 17:54 | 39.56236 | 2.74302 | 40 ft | 15 kts | 269° |
| 2026-05-04 17:54 | 39.56219 | 2.74241 | 39 ft | 0 kts | 239° |
| 2026-05-04 17:55 | 39.56189 | 2.74177 | 38 ft | 37 kts | 239° |
| 2026-05-04 17:55 | 39.55931 | 2.73633 | 34 ft | 102 kts | 238° |
| 2026-05-04 17:55 | 39.55463 | 2.72650 | 30 ft | 153 kts | 238° |
| 2026-05-04 17:55 | 39.54891 | 2.71424 | 470 ft | 159 kts | 237° |
| 2026-05-04 17:56 | 39.54318 | 2.70194 | 1130 ft | 160 kts | 236° |
| 2026-05-04 17:56 | 39.53716 | 2.68920 | 1553 ft | 175 kts | 237° |
| 2026-05-04 17:56 | 39.53039 | 2.67498 | 1892 ft | 193 kts | 237° |
| 2026-05-04 17:56 | 39.52323 | 2.65995 | 2445 ft | 199 kts | 237° |
| 2026-05-04 17:57 | 39.51586 | 2.64450 | 3028 ft | 204 kts | 237° |
| 2026-05-04 17:57 | 39.50835 | 2.62874 | 3739 ft | 204 kts | 238° |
| 2026-05-04 17:57 | 39.50074 | 2.61341 | 4529 ft | 203 kts | 231° |
| 2026-05-04 17:57 | 39.48936 | 2.60184 | 4899 ft | 223 kts | 210° |
| 2026-05-04 17:58 | 39.47516 | 2.59269 | 5463 ft | 231 kts | 209° |
| 2026-05-04 17:58 | 39.46074 | 2.58339 | 6197 ft | 233 kts | 210° |
| 2026-05-04 17:58 | 39.44621 | 2.57401 | 6897 ft | 234 kts | 210° |
| 2026-05-04 17:58 | 39.43054 | 2.56691 | 7422 ft | 253 kts | 188° |
| 2026-05-04 17:59 | 39.41268 | 2.57238 | 7912 ft | 281 kts | 154° |
| 2026-05-04 17:59 | 39.39728 | 2.58881 | 8633 ft | 292 kts | 141° |
| 2026-05-04 17:59 | 39.36687 | 2.62400 | 10182 ft | 298 kts | 141° |
| 2026-05-04 18:00 | 39.35171 | 2.64365 | 10457 ft | 320 kts | 141° |
| 2026-05-04 18:00 | 39.33497 | 2.66404 | 10663 ft | 340 kts | 142° |
| 2026-05-04 18:00 | 39.31734 | 2.68509 | 11149 ft | 350 kts | 141° |
| 2026-05-04 18:00 | 39.30214 | 2.71040 | 11740 ft | 366 kts | 121° |
| 2026-05-04 18:01 | 39.29439 | 2.74171 | 12384 ft | 379 kts | 99° |
| 2026-05-04 18:01 | 39.29614 | 2.77584 | 13029 ft | 388 kts | 75° |
| 2026-05-04 18:01 | 39.30798 | 2.80708 | 13666 ft | 391 kts | 50° |
| 2026-05-04 18:02 | 39.35159 | 2.84775 | 14872 ft | 391 kts | 26° |
| 2026-05-04 18:02 | 39.37537 | 2.86511 | 15440 ft | 395 kts | 26° |
| 2026-05-04 18:02 | 39.39942 | 2.88261 | 16016 ft | 399 kts | 26° |
| 2026-05-04 18:02 | 39.42354 | 2.90067 | 16566 ft | 404 kts | 31° |
| 2026-05-04 18:03 | 39.44541 | 2.92403 | 17099 ft | 412 kts | 43° |
| 2026-05-04 18:03 | 39.46448 | 2.95140 | 17641 ft | 417 kts | 49° |
| 2026-05-04 18:03 | 39.48270 | 2.98091 | 18182 ft | 422 kts | 50° |
| 2026-05-04 18:03 | 39.50111 | 3.01069 | 18652 ft | 426 kts | 49° |
| 2026-05-04 18:04 | 39.52042 | 3.04000 | 19107 ft | 429 kts | 46° |
| 2026-05-04 18:04 | 39.54075 | 3.06863 | 19548 ft | 433 kts | 44° |
| 2026-05-04 18:04 | 39.58344 | 3.12469 | 20500 ft | 440 kts | 42° |
| 2026-05-04 18:05 | 39.60525 | 3.15277 | 20942 ft | 444 kts | 43° |
| 2026-05-04 18:05 | 39.62723 | 3.18129 | 21366 ft | 449 kts | 43° |
| 2026-05-04 18:05 | 39.64931 | 3.21034 | 21807 ft | 454 kts | 43° |
| 2026-05-04 18:05 | 39.67148 | 3.23982 | 22238 ft | 459 kts | 44° |
| 2026-05-04 18:06 | 39.71634 | 3.29994 | 23074 ft | 468 kts | 44° |
| 2026-05-04 18:06 | 39.73876 | 3.33002 | 23455 ft | 472 kts | 44° |
| 2026-05-04 18:06 | 39.76176 | 3.36087 | 23810 ft | 476 kts | 44° |
| 2026-05-04 18:07 | 39.78483 | 3.39184 | 24214 ft | 477 kts | 44° |
| 2026-05-04 18:07 | 39.80797 | 3.42294 | 24593 ft | 479 kts | 44° |
| 2026-05-04 18:07 | 39.83119 | 3.45414 | 24945 ft | 481 kts | 44° |
| 2026-05-04 18:07 | 39.85450 | 3.48547 | 25286 ft | 483 kts | 44° |
| 2026-05-04 18:08 | 39.87798 | 3.51701 | 25611 ft | 486 kts | 44° |
| 2026-05-04 18:08 | 39.90154 | 3.54870 | 25934 ft | 488 kts | 44° |
| 2026-05-04 18:08 | 39.92525 | 3.58063 | 26254 ft | 491 kts | 44° |
| 2026-05-04 18:08 | 39.94899 | 3.61266 | 26574 ft | 493 kts | 44° |
| 2026-05-04 18:09 | 39.99681 | 3.67737 | 27254 ft | 496 kts | 45° |
| 2026-05-04 18:09 | 40.04450 | 3.74208 | 27866 ft | 500 kts | 45° |
| 2026-05-04 18:10 | 40.06868 | 3.77492 | 28157 ft | 503 kts | 45° |
| 2026-05-04 18:10 | 40.09299 | 3.80796 | 28415 ft | 505 kts | 45° |
| 2026-05-04 18:10 | 40.11740 | 3.84112 | 28688 ft | 507 kts | 45° |
| 2026-05-04 18:10 | 40.14189 | 3.87445 | 28954 ft | 510 kts | 45° |
| 2026-05-04 18:11 | 40.16644 | 3.90794 | 29206 ft | 512 kts | 45° |
| 2026-05-04 18:11 | 40.19113 | 3.94167 | 29478 ft | 514 kts | 45° |
| 2026-05-04 18:11 | 40.21590 | 3.97557 | 29765 ft | 515 kts | 45° |
| 2026-05-04 18:11 | 40.24068 | 4.00948 | 30006 ft | 517 kts | 45° |
| 2026-05-04 18:12 | 40.26557 | 4.04355 | 30210 ft | 518 kts | 45° |
| 2026-05-04 18:12 | 40.29055 | 4.07775 | 30406 ft | 520 kts | 45° |
| 2026-05-04 18:12 | 40.31559 | 4.11206 | 30593 ft | 522 kts | 45° |
| 2026-05-04 18:12 | 40.34069 | 4.14651 | 30797 ft | 523 kts | 45° |
| 2026-05-04 18:13 | 40.36574 | 4.18099 | 31060 ft | 522 kts | 45° |
| 2026-05-04 18:13 | 40.39079 | 4.21549 | 31272 ft | 522 kts | 45° |
| 2026-05-04 18:13 | 40.44061 | 4.28421 | 31831 ft | 521 kts | 45° |
| 2026-05-04 18:14 | 40.46563 | 4.31879 | 32099 ft | 521 kts | 45° |
| 2026-05-04 18:14 | 40.49055 | 4.35327 | 32358 ft | 520 kts | 45° |
| 2026-05-04 18:14 | 40.51756 | 4.38468 | 32611 ft | 517 kts | 33° |
| 2026-05-04 18:15 | 40.58152 | 4.42371 | 33084 ft | 500 kts | 5° |
| 2026-05-04 18:15 | 40.64945 | 4.43861 | 33572 ft | 497 kts | 2° |
| 2026-05-04 18:15 | 40.68364 | 4.44542 | 33829 ft | 496 kts | 2° |
| 2026-05-04 18:16 | 40.71775 | 4.45212 | 33936 ft | 494 kts | 2° |
| 2026-05-04 18:16 | 40.78530 | 4.46574 | 33945 ft | 490 kts | 2° |
| 2026-05-04 18:17 | 40.88610 | 4.48689 | 33943 ft | 488 kts | 3° |
| 2026-05-04 18:18 | 40.98666 | 4.50804 | 33939 ft | 487 kts | 2° |
| 2026-05-04 18:18 | 41.05358 | 4.52204 | 33969 ft | 487 kts | 3° |
| 2026-05-04 18:19 | 41.15399 | 4.54331 | 33958 ft | 486 kts | 3° |
| 2026-05-04 18:19 | 41.22034 | 4.55737 | 33954 ft | 486 kts | 3° |
| 2026-05-04 18:20 | 41.28707 | 4.57144 | 33962 ft | 485 kts | 3° |
| 2026-05-04 18:20 | 41.35377 | 4.58554 | 33927 ft | 485 kts | 3° |
| 2026-05-04 18:21 | 41.42046 | 4.59969 | 33922 ft | 485 kts | 3° |
| 2026-05-04 18:21 | 41.48714 | 4.61388 | 33947 ft | 485 kts | 4° |
| 2026-05-04 18:22 | 41.55377 | 4.62814 | 33937 ft | 485 kts | 4° |
| 2026-05-04 18:22 | 41.62040 | 4.64243 | 33948 ft | 485 kts | 4° |
| 2026-05-04 18:23 | 41.68699 | 4.65671 | 33965 ft | 485 kts | 4° |
| 2026-05-04 18:23 | 41.75202 | 4.68321 | 33950 ft | 493 kts | 22° |
| 2026-05-04 18:24 | 41.81157 | 4.72942 | 33946 ft | 496 kts | 28° |
| 2026-05-04 18:24 | 41.87068 | 4.77710 | 33942 ft | 496 kts | 28° |
| 2026-05-04 18:25 | 41.92949 | 4.82434 | 33956 ft | 496 kts | 28° |
| 2026-05-04 18:25 | 41.98867 | 4.87206 | 33955 ft | 496 kts | 28° |
| 2026-05-04 18:26 | 42.04780 | 4.91993 | 33955 ft | 496 kts | 28° |
| 2026-05-04 18:26 | 42.10689 | 4.96788 | 33956 ft | 496 kts | 29° |
| 2026-05-04 18:27 | 42.16601 | 5.01600 | 33945 ft | 497 kts | 29° |
| 2026-05-04 18:27 | 42.21512 | 5.05607 | 33953 ft | 496 kts | 29° |
| 2026-05-04 18:28 | 42.27426 | 5.10434 | 33958 ft | 496 kts | 29° |
| 2026-05-04 18:28 | 42.33331 | 5.15260 | 33970 ft | 496 kts | 29° |
| 2026-05-04 18:29 | 42.39233 | 5.20106 | 33971 ft | 496 kts | 29° |
| 2026-05-04 18:29 | 42.45140 | 5.24961 | 33971 ft | 496 kts | 29° |
| 2026-05-04 18:30 | 42.53990 | 5.32243 | 33986 ft | 496 kts | 29° |
| 2026-05-04 18:31 | 42.59888 | 5.37118 | 33966 ft | 496 kts | 29° |
| 2026-05-04 18:31 | 42.65793 | 5.42010 | 33968 ft | 497 kts | 29° |
| 2026-05-04 18:32 | 42.71655 | 5.46876 | 33969 ft | 497 kts | 29° |
| 2026-05-04 18:32 | 42.77562 | 5.51789 | 33983 ft | 497 kts | 29° |
| 2026-05-04 18:33 | 42.83463 | 5.56708 | 33985 ft | 497 kts | 29° |
| 2026-05-04 18:33 | 42.89363 | 5.61647 | 34007 ft | 497 kts | 29° |
| 2026-05-04 18:34 | 42.95259 | 5.66593 | 34008 ft | 497 kts | 30° |
| 2026-05-04 18:34 | 43.01147 | 5.71542 | 33979 ft | 497 kts | 29° |
| 2026-05-04 18:35 | 43.07001 | 5.76467 | 33991 ft | 497 kts | 29° |
| 2026-05-04 18:35 | 43.12892 | 5.81432 | 34017 ft | 497 kts | 29° |
| 2026-05-04 18:36 | 43.18781 | 5.86404 | 34017 ft | 497 kts | 29° |
| 2026-05-04 18:36 | 43.24679 | 5.91397 | 34013 ft | 497 kts | 29° |
| 2026-05-04 18:37 | 43.30515 | 5.96361 | 34024 ft | 496 kts | 29° |
| 2026-05-04 18:37 | 43.36459 | 6.01251 | 34027 ft | 494 kts | 22° |
| 2026-05-04 18:38 | 43.42858 | 6.04192 | 34020 ft | 485 kts | 5° |
| 2026-05-04 18:38 | 43.49518 | 6.05061 | 34037 ft | 479 kts | 359° |
| 2026-05-04 18:39 | 43.56172 | 6.05719 | 34032 ft | 479 kts | 359° |
| 2026-05-04 18:39 | 43.62810 | 6.06393 | 34032 ft | 478 kts | 359° |
| 2026-05-04 18:40 | 43.69447 | 6.07065 | 34038 ft | 478 kts | 359° |
| 2026-05-04 18:40 | 43.76064 | 6.08086 | 34032 ft | 482 kts | 9° |
| 2026-05-04 18:41 | 43.82374 | 6.11402 | 34021 ft | 489 kts | 23° |
| 2026-05-04 18:41 | 43.88485 | 6.15574 | 34040 ft | 490 kts | 23° |
| 2026-05-04 18:42 | 43.94596 | 6.19735 | 34047 ft | 489 kts | 23° |
| 2026-05-04 18:42 | 44.00690 | 6.23894 | 34049 ft | 488 kts | 23° |
| 2026-05-04 18:43 | 44.06775 | 6.28072 | 34073 ft | 487 kts | 24° |
| 2026-05-04 18:43 | 44.12843 | 6.32250 | 34067 ft | 486 kts | 24° |
| 2026-05-04 18:44 | 44.18860 | 6.36400 | 34063 ft | 485 kts | 24° |
| 2026-05-04 18:44 | 44.24914 | 6.40579 | 34084 ft | 485 kts | 24° |
| 2026-05-04 18:45 | 44.30958 | 6.44751 | 34090 ft | 484 kts | 24° |
| 2026-05-04 18:45 | 44.36990 | 6.48925 | 34068 ft | 484 kts | 23° |
| 2026-05-04 18:46 | 44.43024 | 6.53113 | 34103 ft | 484 kts | 24° |
| 2026-05-04 18:46 | 44.49047 | 6.57312 | 34113 ft | 483 kts | 24° |
| 2026-05-04 18:47 | 44.55056 | 6.61521 | 34119 ft | 482 kts | 24° |
| 2026-05-04 18:47 | 44.61059 | 6.65727 | 34126 ft | 482 kts | 24° |
| 2026-05-04 18:48 | 44.67059 | 6.69929 | 34140 ft | 482 kts | 24° |
| 2026-05-04 18:48 | 44.73054 | 6.74145 | 34140 ft | 482 kts | 24° |
| 2026-05-04 18:49 | 44.79222 | 6.77671 | 34141 ft | 476 kts | 10° |
| 2026-05-04 18:49 | 44.85717 | 6.78680 | 34148 ft | 465 kts | 352° |
| 2026-05-04 18:50 | 44.92137 | 6.78234 | 34143 ft | 465 kts | 352° |
| 2026-05-04 18:50 | 44.98615 | 6.77806 | 34139 ft | 465 kts | 352° |
| 2026-05-04 18:51 | 45.05081 | 6.77392 | 34148 ft | 465 kts | 353° |
| 2026-05-04 18:51 | 45.11549 | 6.76977 | 34150 ft | 465 kts | 352° |
| 2026-05-04 18:52 | 45.17971 | 6.76544 | 34129 ft | 464 kts | 352° |
| 2026-05-04 18:52 | 45.24427 | 6.76109 | 34130 ft | 464 kts | 353° |
| 2026-05-04 18:53 | 45.30886 | 6.75677 | 34121 ft | 463 kts | 353° |
| 2026-05-04 18:53 | 45.37328 | 6.75246 | 34109 ft | 463 kts | 353° |
| 2026-05-04 18:54 | 45.43772 | 6.74822 | 34116 ft | 463 kts | 353° |
| 2026-05-04 18:54 | 45.50165 | 6.74397 | 34108 ft | 463 kts | 353° |
| 2026-05-04 18:55 | 45.56609 | 6.73951 | 34100 ft | 462 kts | 353° |
| 2026-05-04 18:55 | 45.66264 | 6.73278 | 34069 ft | 463 kts | 353° |
| 2026-05-04 18:56 | 45.72711 | 6.72843 | 34065 ft | 464 kts | 353° |
| 2026-05-04 18:56 | 45.79179 | 6.72788 | 34072 ft | 470 kts | 2° |
| 2026-05-04 18:57 | 45.85538 | 6.75225 | 34063 ft | 479 kts | 21° |
| 2026-05-04 18:57 | 45.91608 | 6.79200 | 34044 ft | 480 kts | 21° |
| 2026-05-04 18:58 | 45.97685 | 6.83179 | 34052 ft | 480 kts | 21° |
| 2026-05-04 18:58 | 46.03767 | 6.87154 | 34049 ft | 480 kts | 21° |
| 2026-05-04 18:59 | 46.09813 | 6.91122 | 34043 ft | 480 kts | 21° |
| 2026-05-04 18:59 | 46.14030 | 6.93905 | 34033 ft | 480 kts | 21° |
| 2026-05-04 19:00 | 46.20139 | 6.97942 | 34034 ft | 480 kts | 21° |
| 2026-05-04 19:00 | 46.26206 | 7.01953 | 34045 ft | 480 kts | 21° |
| 2026-05-04 19:01 | 46.32279 | 7.05978 | 34054 ft | 479 kts | 22° |
| 2026-05-04 19:01 | 46.38341 | 7.10007 | 34056 ft | 479 kts | 22° |
| 2026-05-04 19:02 | 46.44389 | 7.14041 | 34023 ft | 479 kts | 22° |
| 2026-05-04 19:02 | 46.47431 | 7.16075 | 33106 ft | 483 kts | 22° |
| 2026-05-04 19:02 | 46.50444 | 7.18091 | 31807 ft | 483 kts | 23° |
| 2026-05-04 19:03 | 46.53496 | 7.20138 | 30751 ft | 485 kts | 24° |
| 2026-05-04 19:03 | 46.56537 | 7.22173 | 30408 ft | 476 kts | 24° |
| 2026-05-04 19:03 | 46.59509 | 7.24164 | 30152 ft | 464 kts | 24° |
| 2026-05-04 19:03 | 46.62413 | 7.26116 | 29728 ft | 457 kts | 24° |
| 2026-05-04 19:04 | 46.65286 | 7.28053 | 29200 ft | 453 kts | 24° |
| 2026-05-04 19:04 | 46.68132 | 7.29974 | 28677 ft | 449 kts | 24° |
| 2026-05-04 19:04 | 46.70952 | 7.31876 | 28150 ft | 445 kts | 24° |
| 2026-05-04 19:04 | 46.73749 | 7.33760 | 27685 ft | 440 kts | 24° |
| 2026-05-04 19:05 | 46.76515 | 7.35623 | 27187 ft | 436 kts | 24° |
| 2026-05-04 19:05 | 46.79257 | 7.37476 | 26713 ft | 432 kts | 24° |
| 2026-05-04 19:05 | 46.81974 | 7.39341 | 26248 ft | 429 kts | 27° |
| 2026-05-04 19:05 | 46.84489 | 7.41642 | 25789 ft | 425 kts | 38° |
| 2026-05-04 19:06 | 46.86677 | 7.44519 | 25328 ft | 421 kts | 49° |
| 2026-05-04 19:06 | 46.88509 | 7.47761 | 24886 ft | 417 kts | 53° |
| 2026-05-04 19:06 | 46.90307 | 7.51082 | 24413 ft | 414 kts | 53° |
| 2026-05-04 19:06 | 46.92093 | 7.54368 | 23958 ft | 412 kts | 53° |
| 2026-05-04 19:07 | 46.93879 | 7.57654 | 23484 ft | 411 kts | 53° |
| 2026-05-04 19:07 | 46.95649 | 7.60916 | 22982 ft | 408 kts | 53° |
| 2026-05-04 19:07 | 46.97406 | 7.64161 | 22515 ft | 405 kts | 53° |
| 2026-05-04 19:07 | 46.99145 | 7.67379 | 22055 ft | 402 kts | 53° |
| 2026-05-04 19:08 | 47.00873 | 7.70580 | 21585 ft | 399 kts | 52° |
| 2026-05-04 19:08 | 47.02589 | 7.73756 | 21121 ft | 397 kts | 52° |
| 2026-05-04 19:08 | 47.04300 | 7.76922 | 20651 ft | 395 kts | 52° |
| 2026-05-04 19:08 | 47.06003 | 7.80072 | 20186 ft | 394 kts | 52° |
| 2026-05-04 19:09 | 47.07702 | 7.83223 | 19726 ft | 392 kts | 52° |
| 2026-05-04 19:09 | 47.09387 | 7.86359 | 19265 ft | 391 kts | 52° |
| 2026-05-04 19:09 | 47.11063 | 7.89490 | 18788 ft | 390 kts | 52° |
| 2026-05-04 19:09 | 47.12735 | 7.92624 | 18346 ft | 389 kts | 53° |
| 2026-05-04 19:10 | 47.14130 | 7.95938 | 17854 ft | 386 kts | 65° |
| 2026-05-04 19:10 | 47.15268 | 7.99495 | 17400 ft | 383 kts | 66° |
| 2026-05-04 19:10 | 47.16395 | 8.03026 | 16947 ft | 380 kts | 66° |
| 2026-05-04 19:10 | 47.17518 | 8.06529 | 16506 ft | 378 kts | 66° |
| 2026-05-04 19:11 | 47.18634 | 8.10015 | 16063 ft | 376 kts | 66° |
| 2026-05-04 19:11 | 47.19745 | 8.13501 | 15545 ft | 377 kts | 66° |
| 2026-05-04 19:11 | 47.20913 | 8.16941 | 15032 ft | 377 kts | 57° |
| 2026-05-04 19:11 | 47.22727 | 8.19653 | 14734 ft | 369 kts | 31° |
| 2026-05-04 19:12 | 47.25039 | 8.21045 | 14605 ft | 353 kts | 7° |
| 2026-05-04 19:12 | 47.29499 | 8.19847 | 14360 ft | 309 kts | 329° |
| 2026-05-04 19:12 | 47.31365 | 8.18462 | 14236 ft | 293 kts | 329° |
| 2026-05-04 19:13 | 47.33159 | 8.17123 | 14121 ft | 285 kts | 329° |
| 2026-05-04 19:13 | 47.34903 | 8.15817 | 13938 ft | 279 kts | 329° |
| 2026-05-04 19:13 | 47.36626 | 8.14524 | 13677 ft | 277 kts | 329° |
| 2026-05-04 19:13 | 47.38339 | 8.13238 | 13364 ft | 276 kts | 329° |
| 2026-05-04 19:14 | 47.40046 | 8.11958 | 13045 ft | 275 kts | 329° |
| 2026-05-04 19:14 | 47.41747 | 8.10683 | 12732 ft | 274 kts | 329° |
| 2026-05-04 19:14 | 47.43439 | 8.09411 | 12433 ft | 272 kts | 329° |
| 2026-05-04 19:14 | 47.45126 | 8.08146 | 12126 ft | 271 kts | 329° |
| 2026-05-04 19:15 | 47.46818 | 8.06954 | 11628 ft | 270 kts | 339° |
| 2026-05-04 19:15 | 47.48679 | 8.06592 | 11108 ft | 273 kts | 4° |
| 2026-05-04 19:15 | 47.50493 | 8.07379 | 10583 ft | 274 kts | 30° |
| 2026-05-04 19:15 | 47.51932 | 8.09168 | 10074 ft | 270 kts | 56° |
| 2026-05-04 19:16 | 47.52801 | 8.11545 | 9564 ft | 264 kts | 68° |
| 2026-05-04 19:16 | 47.53548 | 8.14021 | 9000 ft | 262 kts | 68° |
| 2026-05-04 19:16 | 47.54292 | 8.16484 | 8455 ft | 260 kts | 69° |
| 2026-05-04 19:16 | 47.55027 | 8.18916 | 7925 ft | 258 kts | 68° |
| 2026-05-04 19:17 | 47.55756 | 8.21329 | 7392 ft | 256 kts | 68° |
| 2026-05-04 19:17 | 47.56235 | 8.22914 | 7004 ft | 256 kts | 68° |
| 2026-05-04 19:17 | 47.56970 | 8.25353 | 6336 ft | 265 kts | 68° |
| 2026-05-04 19:17 | 47.57737 | 8.27903 | 5596 ft | 275 kts | 66° |
| 2026-05-04 19:18 | 47.58517 | 8.30485 | 5027 ft | 270 kts | 66° |
| 2026-05-04 19:18 | 47.59258 | 8.32941 | 4826 ft | 253 kts | 65° |
| 2026-05-04 19:18 | 47.59777 | 8.35383 | 4684 ft | 247 kts | 88° |
| 2026-05-04 19:18 | 47.59454 | 8.37824 | 4421 ft | 241 kts | 120° |
| 2026-05-04 19:19 | 47.58397 | 8.39675 | 4152 ft | 235 kts | 138° |
| 2026-05-04 19:19 | 47.57203 | 8.41296 | 3833 ft | 229 kts | 139° |
| 2026-05-04 19:19 | 47.56056 | 8.42859 | 3543 ft | 220 kts | 138° |
| 2026-05-04 19:19 | 47.54956 | 8.44366 | 3250 ft | 209 kts | 138° |
| 2026-05-04 19:20 | 47.53940 | 8.45760 | 3020 ft | 189 kts | 139° |
| 2026-05-04 19:20 | 47.53022 | 8.47019 | 2772 ft | 170 kts | 139° |
| 2026-05-04 19:20 | 47.52191 | 8.48159 | 2529 ft | 157 kts | 139° |
| 2026-05-04 19:20 | 47.51403 | 8.49241 | 2306 ft | 152 kts | 139° |
| 2026-05-04 19:21 | 47.50630 | 8.50288 | 2104 ft | 150 kts | 139° |
| 2026-05-04 19:21 | 47.49879 | 8.51342 | 1881 ft | 149 kts | 139° |
| 2026-05-04 19:21 | 47.49120 | 8.52364 | 1682 ft | 146 kts | 140° |
| 2026-05-04 19:21 | 47.48379 | 8.53373 | 1479 ft | 147 kts | 140° |
| 2026-05-04 19:22 | 47.47652 | 8.54369 | 1400 ft | 131 kts | 137° |
| 2026-05-04 19:22 | 47.47097 | 8.55123 | 1399 ft | 87 kts | 138° |
| 2026-05-04 19:22 | 47.46738 | 8.55614 | 1406 ft | 52 kts | 136° |
| 2026-05-04 19:22 | 47.46532 | 8.55870 | 1393 ft | 29 kts | 149° |
| 2026-05-04 19:23 | 47.46383 | 8.55954 | 1399 ft | 7 kts | 166° |
| 2026-05-04 19:23 | 47.46367 | 8.55960 | 1398 ft | 0 kts | 167° |
| 2026-05-04 19:23 | 47.46362 | 8.55962 | 1400 ft | 5 kts | 167° |
| 2026-05-04 19:24 | 47.46290 | 8.55984 | 1397 ft | 12 kts | 167° |
| 2026-05-04 19:24 | 47.46215 | 8.56000 | 1398 ft | 10 kts | 174° |
| 2026-05-04 19:24 | 47.46157 | 8.56000 | 1399 ft | 8 kts | 186° |
| 2026-05-04 19:24 | 47.46074 | 8.55988 | 1401 ft | 14 kts | 185° |
| 2026-05-04 19:25 | 47.45997 | 8.55974 | 1402 ft | 11 kts | 188° |
| 2026-05-04 19:25 | 47.45919 | 8.55941 | 1401 ft | 13 kts | 199° |
| 2026-05-04 19:25 | 47.45848 | 8.55906 | 1402 ft | 11 kts | 200° |
| 2026-05-04 19:25 | 47.45772 | 8.55877 | 1404 ft | 10 kts | 185° |
| 2026-05-04 19:26 | 47.45717 | 8.55868 | 1401 ft | 5 kts | 186° |
| 2026-05-04 19:26 | 47.45674 | 8.55860 | 1398 ft | 7 kts | 187° |
| 2026-05-04 19:26 | 47.45643 | 8.55797 | 1403 ft | 12 kts | 274° |
| 2026-05-04 19:26 | 47.45655 | 8.55613 | 1397 ft | 20 kts | 276° |
| 2026-05-04 19:27 | 47.45668 | 8.55443 | 1397 ft | 15 kts | 276° |
| 2026-05-04 19:27 | 47.45629 | 8.55335 | 1397 ft | 14 kts | 175° |
| 2026-05-04 19:27 | 47.45535 | 8.55399 | 1401 ft | 16 kts | 155° |
| 2026-05-04 19:27 | 47.45470 | 8.55442 | 1403 ft | 8 kts | 155° |
| 2026-05-04 19:28 | 47.45426 | 8.55473 | 1397 ft | 6 kts | 154° |
| 2026-05-04 19:28 | 47.45368 | 8.55512 | 1403 ft | 14 kts | 156° |
| 2026-05-04 19:28 | 47.45281 | 8.55580 | 1397 ft | 14 kts | 135° |
| 2026-05-04 19:28 | 47.45270 | 8.55646 | 1397 ft | 4 kts | 95° |
| 2026-05-04 19:29 | 47.45266 | 8.55712 | 1397 ft | 6 kts | 97° |
| 2026-05-04 19:29 | 47.45232 | 8.55719 | 1397 ft | 9 kts | 186° |
| 2026-05-04 19:29 | 47.45187 | 8.55712 | 1404 ft | 2 kts | 186° |